Pagina principale
METAR-TAF:

METAR-TAF

Aeroporti :

Plant City, Florida, Stati Uniti

latitudine: 28-00-01N, longitudine: 082-09-51W, altezza: 47 m

Osservazione

Il bollettino è stato emesso 17 minuti fa, alle 23:35 UTC
Vento 11 kt da est con raffiche fino a 14 kt
Temperature 31°C
Umidità 46%
Pressione 1020 hPa
Visibilità: 16.1 km
Cielo sereno

METAR: KPCM 252335Z AUTO 10011G14KT 10SM CLR 31/18 A3011 RMK AO2

Ora: 19:52 (23:52 UTC)


TAF: mancante

Osservazioni e previsioni meteorologiche di più di 4000 aeroporti (messaggi METAR e TAF).

Le stazioni disponibili sono rappresentate dai dischi gialli e rossi sulla carta.

Puntare il mouse per vedere il nome della stazione.

Clicca sopra per visualizzare le osservazioni e previsioni meteorologiche.

Per cambiare la mappa : fare clic sui pulsanti verdi con una croce nera per ingrandire, il pulsante verde con un trattino per diminuire, o sulla freccia verde per le mappe adiacenti.


METAR-TAF: